sensor_id;sensor_type;location;lat;lon;timestamp;pressure;altitude;pressure_sealevel;temperature
7389;BMP180;3735;50.136;11.062;2022-10-17T00:00:26;98672.00;;;11.10
7389;BMP180;3735;50.136;11.062;2022-10-17T00:02:56;98708.00;;;11.10
7389;BMP180;3735;50.136;11.062;2022-10-17T00:05:23;98701.00;;;11.10
7389;BMP180;3735;50.136;11.062;2022-10-17T00:07:50;98714.00;;;11.10
7389;BMP180;3735;50.136;11.062;2022-10-17T00:10:16;98723.00;;;11.10
7389;BMP180;3735;50.136;11.062;2022-10-17T00:12:42;98724.00;;;11.10
7389;BMP180;3735;50.136;11.062;2022-10-17T00:15:09;98707.00;;;11.10
7389;BMP180;3735;50.136;11.062;2022-10-17T00:17:35;98721.00;;;11.10
7389;BMP180;3735;50.136;11.062;2022-10-17T00:20:03;98728.00;;;11.10
7389;BMP180;3735;50.136;11.062;2022-10-17T00:22:29;98724.00;;;11.10
7389;BMP180;3735;50.136;11.062;2022-10-17T00:24:55;98725.00;;;11.10
7389;BMP180;3735;50.136;11.062;2022-10-17T00:27:20;98699.00;;;11.10
7389;BMP180;3735;50.136;11.062;2022-10-17T00:29:50;98721.00;;;11.10
7389;BMP180;3735;50.136;11.062;2022-10-17T00:32:18;98729.00;;;11.10
7389;BMP180;3735;50.136;11.062;2022-10-17T00:34:44;98738.00;;;11.10
7389;BMP180;3735;50.136;11.062;2022-10-17T00:37:10;98734.00;;;11.00
7389;BMP180;3735;50.136;11.062;2022-10-17T00:39:36;98732.00;;;11.00
7389;BMP180;3735;50.136;11.062;2022-10-17T00:42:02;98741.00;;;11.00
7389;BMP180;3735;50.136;11.062;2022-10-17T00:47:02;98735.00;;;11.00
7389;BMP180;3735;50.136;11.062;2022-10-17T00:49:33;98720.00;;;11.00
7389;BMP180;3735;50.136;11.062;2022-10-17T00:52:05;98732.00;;;11.10
7389;BMP180;3735;50.136;11.062;2022-10-17T00:54:37;98738.00;;;11.20
7389;BMP180;3735;50.136;11.062;2022-10-17T00:57:04;98727.00;;;11.20
7389;BMP180;3735;50.136;11.062;2022-10-17T00:59:33;98729.00;;;11.20
7389;BMP180;3735;50.136;11.062;2022-10-17T01:02:08;98736.00;;;11.10
7389;BMP180;3735;50.136;11.062;2022-10-17T01:04:41;98732.00;;;11.10
7389;BMP180;3735;50.136;11.062;2022-10-17T01:07:08;98734.00;;;11.10
7389;BMP180;3735;50.136;11.062;2022-10-17T01:09:34;98728.00;;;11.10
7389;BMP180;3735;50.136;11.062;2022-10-17T01:18:21;98733.00;;;10.90
7389;BMP180;3735;50.136;11.062;2022-10-17T01:26:39;98739.00;;;10.80
7389;BMP180;3735;50.136;11.062;2022-10-17T01:29:52;98743.00;;;10.80
7389;BMP180;3735;50.136;11.062;2022-10-17T01:32:38;98745.00;;;10.70
7389;BMP180;3735;50.136;11.062;2022-10-17T01:35:37;98740.00;;;10.70
7389;BMP180;3735;50.136;11.062;2022-10-17T01:38:24;98734.00;;;10.70
7389;BMP180;3735;50.136;11.062;2022-10-17T01:41:04;98738.00;;;10.70
7389;BMP180;3735;50.136;11.062;2022-10-17T01:43:46;98748.00;;;10.70
7389;BMP180;3735;50.136;11.062;2022-10-17T01:46:36;98736.00;;;10.80
7389;BMP180;3735;50.136;11.062;2022-10-17T01:49:06;98741.00;;;10.70
7389;BMP180;3735;50.136;11.062;2022-10-17T01:54:24;98741.00;;;10.60
7389;BMP180;3735;50.136;11.062;2022-10-17T01:56:59;98744.00;;;10.60
7389;BMP180;3735;50.136;11.062;2022-10-17T01:59:39;98735.00;;;10.60
7389;BMP180;3735;50.136;11.062;2022-10-17T02:02:06;98736.00;;;10.60
7389;BMP180;3735;50.136;11.062;2022-10-17T02:04:34;98737.00;;;10.60
7389;BMP180;3735;50.136;11.062;2022-10-17T02:07:12;98737.00;;;10.60
7389;BMP180;3735;50.136;11.062;2022-10-17T02:09:38;98740.00;;;10.50
7389;BMP180;3735;50.136;11.062;2022-10-17T02:12:38;98743.00;;;10.50
7389;BMP180;3735;50.136;11.062;2022-10-17T02:24:12;98749.00;;;10.40
7389;BMP180;3735;50.136;11.062;2022-10-17T02:27:02;98758.00;;;10.40
7389;BMP180;3735;50.136;11.062;2022-10-17T02:29:36;98746.00;;;10.40
7389;BMP180;3735;50.136;11.062;2022-10-17T02:32:10;98745.00;;;10.30
7389;BMP180;3735;50.136;11.062;2022-10-17T02:34:47;98742.00;;;10.40
7389;BMP180;3735;50.136;11.062;2022-10-17T02:37:20;98736.00;;;10.30
7389;BMP180;3735;50.136;11.062;2022-10-17T02:39:48;98740.00;;;10.40
7389;BMP180;3735;50.136;11.062;2022-10-17T02:42:16;98746.00;;;10.40
7389;BMP180;3735;50.136;11.062;2022-10-17T02:44:45;98736.00;;;10.50
7389;BMP180;3735;50.136;11.062;2022-10-17T02:47:31;98740.00;;;10.50
7389;BMP180;3735;50.136;11.062;2022-10-17T02:49:58;98743.00;;;10.50
7389;BMP180;3735;50.136;11.062;2022-10-17T02:52:50;98737.00;;;10.50
7389;BMP180;3735;50.136;11.062;2022-10-17T02:55:27;98740.00;;;10.50
7389;BMP180;3735;50.136;11.062;2022-10-17T02:58:09;98738.00;;;10.50
7389;BMP180;3735;50.136;11.062;2022-10-17T03:00:40;98749.00;;;10.50
7389;BMP180;3735;50.136;11.062;2022-10-17T03:03:29;98733.00;;;10.60
7389;BMP180;3735;50.136;11.062;2022-10-17T03:05:55;98738.00;;;10.60
7389;BMP180;3735;50.136;11.062;2022-10-17T03:08:22;98736.00;;;10.60
7389;BMP180;3735;50.136;11.062;2022-10-17T03:10:48;98737.00;;;10.50
7389;BMP180;3735;50.136;11.062;2022-10-17T03:13:15;98744.00;;;10.50
7389;BMP180;3735;50.136;11.062;2022-10-17T03:15:41;98739.00;;;10.40
7389;BMP180;3735;50.136;11.062;2022-10-17T03:18:07;98746.00;;;10.50
7389;BMP180;3735;50.136;11.062;2022-10-17T03:20:34;98746.00;;;10.50
7389;BMP180;3735;50.136;11.062;2022-10-17T03:23:00;98740.00;;;10.40
7389;BMP180;3735;50.136;11.062;2022-10-17T03:25:26;98738.00;;;10.50
7389;BMP180;3735;50.136;11.062;2022-10-17T03:27:52;98733.00;;;10.40
7389;BMP180;3735;50.136;11.062;2022-10-17T03:30:18;98742.00;;;10.40
7389;BMP180;3735;50.136;11.062;2022-10-17T03:32:44;98727.00;;;10.50
7389;BMP180;3735;50.136;11.062;2022-10-17T03:35:10;98749.00;;;10.50
7389;BMP180;3735;50.136;11.062;2022-10-17T03:37:36;98740.00;;;10.50
7389;BMP180;3735;50.136;11.062;2022-10-17T03:40:02;98763.00;;;10.50
7389;BMP180;3735;50.136;11.062;2022-10-17T03:42:28;98761.00;;;10.50
7389;BMP180;3735;50.136;11.062;2022-10-17T03:44:53;98764.00;;;10.40
7389;BMP180;3735;50.136;11.062;2022-10-17T03:47:19;98760.00;;;10.40
7389;BMP180;3735;50.136;11.062;2022-10-17T03:49:45;98769.00;;;10.40
7389;BMP180;3735;50.136;11.062;2022-10-17T03:52:12;98774.00;;;10.40
7389;BMP180;3735;50.136;11.062;2022-10-17T03:54:38;98766.00;;;10.50
7389;BMP180;3735;50.136;11.062;2022-10-17T03:57:04;98768.00;;;10.50
7389;BMP180;3735;50.136;11.062;2022-10-17T03:59:30;98770.00;;;10.60
7389;BMP180;3735;50.136;11.062;2022-10-17T04:01:56;98771.00;;;10.60
7389;BMP180;3735;50.136;11.062;2022-10-17T04:04:22;98774.00;;;10.70
7389;BMP180;3735;50.136;11.062;2022-10-17T04:06:47;98776.00;;;10.70
7389;BMP180;3735;50.136;11.062;2022-10-17T04:09:13;98763.00;;;10.80
7389;BMP180;3735;50.136;11.062;2022-10-17T04:11:39;98779.00;;;10.90
7389;BMP180;3735;50.136;11.062;2022-10-17T04:14:05;98778.00;;;10.90
7389;BMP180;3735;50.136;11.062;2022-10-17T04:16:31;98773.00;;;11.00
7389;BMP180;3735;50.136;11.062;2022-10-17T04:18:58;98799.00;;;11.00
7389;BMP180;3735;50.136;11.062;2022-10-17T04:21:26;98795.00;;;11.10
7389;BMP180;3735;50.136;11.062;2022-10-17T04:23:58;98797.00;;;11.20
7389;BMP180;3735;50.136;11.062;2022-10-17T04:26:24;98801.00;;;11.20
7389;BMP180;3735;50.136;11.062;2022-10-17T04:28:50;98793.00;;;11.30
7389;BMP180;3735;50.136;11.062;2022-10-17T04:31:17;98804.00;;;11.40
7389;BMP180;3735;50.136;11.062;2022-10-17T04:33:47;98802.00;;;11.50
7389;BMP180;3735;50.136;11.062;2022-10-17T04:36:17;98800.00;;;11.50
7389;BMP180;3735;50.136;11.062;2022-10-17T04:38:43;98795.00;;;11.60
7389;BMP180;3735;50.136;11.062;2022-10-17T04:41:13;98805.00;;;11.60
7389;BMP180;3735;50.136;11.062;2022-10-17T04:43:39;98805.00;;;11.60
7389;BMP180;3735;50.136;11.062;2022-10-17T04:46:11;98801.00;;;11.70
7389;BMP180;3735;50.136;11.062;2022-10-17T04:48:39;98802.00;;;11.70
7389;BMP180;3735;50.136;11.062;2022-10-17T04:51:12;98800.00;;;11.70
7389;BMP180;3735;50.136;11.062;2022-10-17T04:53:40;98813.00;;;11.80
7389;BMP180;3735;50.136;11.062;2022-10-17T04:56:18;98807.00;;;11.80
7389;BMP180;3735;50.136;11.062;2022-10-17T04:58:45;98811.00;;;11.90
7389;BMP180;3735;50.136;11.062;2022-10-17T05:01:15;98809.00;;;11.90
7389;BMP180;3735;50.136;11.062;2022-10-17T05:03:41;98808.00;;;11.90
7389;BMP180;3735;50.136;11.062;2022-10-17T05:06:14;98817.00;;;11.90
7389;BMP180;3735;50.136;11.062;2022-10-17T05:08:40;98816.00;;;11.90
7389;BMP180;3735;50.136;11.062;2022-10-17T05:11:20;98813.00;;;11.80
7389;BMP180;3735;50.136;11.062;2022-10-17T05:14:00;98805.00;;;11.80
7389;BMP180;3735;50.136;11.062;2022-10-17T05:16:28;98809.00;;;11.70
7389;BMP180;3735;50.136;11.062;2022-10-17T05:18:56;98817.00;;;11.60
7389;BMP180;3735;50.136;11.062;2022-10-17T05:21:24;98812.00;;;11.50
7389;BMP180;3735;50.136;11.062;2022-10-17T05:23:51;98808.00;;;11.50
7389;BMP180;3735;50.136;11.062;2022-10-17T05:26:17;98816.00;;;11.50
7389;BMP180;3735;50.136;11.062;2022-10-17T05:28:43;98809.00;;;11.50
7389;BMP180;3735;50.136;11.062;2022-10-17T05:31:10;98815.00;;;11.50
7389;BMP180;3735;50.136;11.062;2022-10-17T05:33:37;98822.00;;;11.40
7389;BMP180;3735;50.136;11.062;2022-10-17T05:36:03;98818.00;;;11.30
7389;BMP180;3735;50.136;11.062;2022-10-17T05:38:30;98823.00;;;11.40
7389;BMP180;3735;50.136;11.062;2022-10-17T05:40:57;98831.00;;;11.40
7389;BMP180;3735;50.136;11.062;2022-10-17T05:43:24;98828.00;;;11.40
7389;BMP180;3735;50.136;11.062;2022-10-17T05:45:50;98843.00;;;11.40
7389;BMP180;3735;50.136;11.062;2022-10-17T05:48:16;98842.00;;;11.40
7389;BMP180;3735;50.136;11.062;2022-10-17T05:50:42;98854.00;;;11.40
7389;BMP180;3735;50.136;11.062;2022-10-17T05:53:07;98844.00;;;11.40
7389;BMP180;3735;50.136;11.062;2022-10-17T05:55:33;98840.00;;;11.50
7389;BMP180;3735;50.136;11.062;2022-10-17T05:58:00;98838.00;;;11.50
7389;BMP180;3735;50.136;11.062;2022-10-17T06:00:26;98833.00;;;11.50
7389;BMP180;3735;50.136;11.062;2022-10-17T06:02:52;98842.00;;;11.60
7389;BMP180;3735;50.136;11.062;2022-10-17T06:05:18;98843.00;;;11.80
7389;BMP180;3735;50.136;11.062;2022-10-17T06:07:44;98857.00;;;11.90
7389;BMP180;3735;50.136;11.062;2022-10-17T06:10:10;98860.00;;;12.00
7389;BMP180;3735;50.136;11.062;2022-10-17T06:12:38;98859.00;;;12.10
7389;BMP180;3735;50.136;11.062;2022-10-17T06:15:05;98868.00;;;12.10
7389;BMP180;3735;50.136;11.062;2022-10-17T06:17:30;98865.00;;;12.10
7389;BMP180;3735;50.136;11.062;2022-10-17T06:19:56;98869.00;;;12.30
7389;BMP180;3735;50.136;11.062;2022-10-17T06:22:22;98862.00;;;12.40
7389;BMP180;3735;50.136;11.062;2022-10-17T06:24:48;98870.00;;;12.50
7389;BMP180;3735;50.136;11.062;2022-10-17T06:27:13;98865.00;;;12.50
7389;BMP180;3735;50.136;11.062;2022-10-17T06:29:39;98860.00;;;12.50
7389;BMP180;3735;50.136;11.062;2022-10-17T06:32:06;98866.00;;;12.40
7389;BMP180;3735;50.136;11.062;2022-10-17T06:34:32;98871.00;;;12.50
7389;BMP180;3735;50.136;11.062;2022-10-17T06:36:57;98865.00;;;12.50
7389;BMP180;3735;50.136;11.062;2022-10-17T06:39:23;98881.00;;;12.50
7389;BMP180;3735;50.136;11.062;2022-10-17T06:41:51;98886.00;;;12.60
7389;BMP180;3735;50.136;11.062;2022-10-17T06:44:17;98878.00;;;12.70
7389;BMP180;3735;50.136;11.062;2022-10-17T06:46:43;98879.00;;;12.80
7389;BMP180;3735;50.136;11.062;2022-10-17T06:49:09;98879.00;;;12.80
7389;BMP180;3735;50.136;11.062;2022-10-17T06:51:36;98878.00;;;12.90
7389;BMP180;3735;50.136;11.062;2022-10-17T06:54:03;98888.00;;;13.00
7389;BMP180;3735;50.136;11.062;2022-10-17T06:56:29;98875.00;;;13.00
7389;BMP180;3735;50.136;11.062;2022-10-17T06:58:54;98898.00;;;13.10
7389;BMP180;3735;50.136;11.062;2022-10-17T07:01:20;98886.00;;;13.00
7389;BMP180;3735;50.136;11.062;2022-10-17T07:03:47;98891.00;;;13.00
7389;BMP180;3735;50.136;11.062;2022-10-17T07:06:17;98892.00;;;12.80
7389;BMP180;3735;50.136;11.062;2022-10-17T07:08:44;98897.00;;;12.90
7389;BMP180;3735;50.136;11.062;2022-10-17T07:11:16;98895.00;;;12.90
7389;BMP180;3735;50.136;11.062;2022-10-17T07:13:43;98895.00;;;12.90
7389;BMP180;3735;50.136;11.062;2022-10-17T07:16:10;98897.00;;;13.00
7389;BMP180;3735;50.136;11.062;2022-10-17T07:18:36;98889.00;;;13.10
7389;BMP180;3735;50.136;11.062;2022-10-17T07:21:03;98888.00;;;13.10
7389;BMP180;3735;50.136;11.062;2022-10-17T07:23:29;98902.00;;;13.30
7389;BMP180;3735;50.136;11.062;2022-10-17T07:26:00;98911.00;;;13.90
7389;BMP180;3735;50.136;11.062;2022-10-17T07:28:27;98897.00;;;15.10
7389;BMP180;3735;50.136;11.062;2022-10-17T07:30:54;98904.00;;;16.50
7389;BMP180;3735;50.136;11.062;2022-10-17T07:33:19;98895.00;;;18.10
7389;BMP180;3735;50.136;11.062;2022-10-17T07:35:45;98895.00;;;19.30
7389;BMP180;3735;50.136;11.062;2022-10-17T07:38:11;98894.00;;;20.60
7389;BMP180;3735;50.136;11.062;2022-10-17T07:40:37;98895.00;;;21.10
7389;BMP180;3735;50.136;11.062;2022-10-17T07:43:02;98894.00;;;21.20
7389;BMP180;3735;50.136;11.062;2022-10-17T07:45:28;98901.00;;;22.30
7389;BMP180;3735;50.136;11.062;2022-10-17T07:47:56;98897.00;;;23.70
7389;BMP180;3735;50.136;11.062;2022-10-17T07:50:23;98907.00;;;24.60
7389;BMP180;3735;50.136;11.062;2022-10-17T07:52:49;98918.00;;;25.80
7389;BMP180;3735;50.136;11.062;2022-10-17T07:55:15;98918.00;;;26.40
7389;BMP180;3735;50.136;11.062;2022-10-17T07:57:41;98912.00;;;27.20
7389;BMP180;3735;50.136;11.062;2022-10-17T08:00:08;98898.00;;;27.20
7389;BMP180;3735;50.136;11.062;2022-10-17T08:02:34;98916.00;;;27.50
7389;BMP180;3735;50.136;11.062;2022-10-17T08:04:59;98906.00;;;27.30
7389;BMP180;3735;50.136;11.062;2022-10-17T08:07:25;98908.00;;;27.10
7389;BMP180;3735;50.136;11.062;2022-10-17T08:09:51;98913.00;;;27.50
7389;BMP180;3735;50.136;11.062;2022-10-17T08:12:17;98903.00;;;27.30
7389;BMP180;3735;50.136;11.062;2022-10-17T08:14:43;98911.00;;;26.80
7389;BMP180;3735;50.136;11.062;2022-10-17T08:17:09;98911.00;;;27.10
7389;BMP180;3735;50.136;11.062;2022-10-17T08:19:41;98891.00;;;27.10
7389;BMP180;3735;50.136;11.062;2022-10-17T08:22:07;98911.00;;;27.20
7389;BMP180;3735;50.136;11.062;2022-10-17T08:24:33;98911.00;;;27.50
7389;BMP180;3735;50.136;11.062;2022-10-17T08:26:58;98915.00;;;27.30
7389;BMP180;3735;50.136;11.062;2022-10-17T08:29:25;98914.00;;;27.30
7389;BMP180;3735;50.136;11.062;2022-10-17T08:31:51;98915.00;;;27.50
7389;BMP180;3735;50.136;11.062;2022-10-17T08:34:17;98909.00;;;27.90
7389;BMP180;3735;50.136;11.062;2022-10-17T08:36:43;98923.00;;;28.00
7389;BMP180;3735;50.136;11.062;2022-10-17T08:39:09;98922.00;;;27.90
7389;BMP180;3735;50.136;11.062;2022-10-17T08:48:10;98927.00;;;28.80
7389;BMP180;3735;50.136;11.062;2022-10-17T08:50:53;98934.00;;;29.10
7389;BMP180;3735;50.136;11.062;2022-10-17T08:53:51;98928.00;;;28.70
7389;BMP180;3735;50.136;11.062;2022-10-17T08:56:39;98931.00;;;28.80
7389;BMP180;3735;50.136;11.062;2022-10-17T08:59:28;98925.00;;;28.60
7389;BMP180;3735;50.136;11.062;2022-10-17T09:14:44;98929.00;;;28.80
7389;BMP180;3735;50.136;11.062;2022-10-17T09:17:44;98932.00;;;29.20
7389;BMP180;3735;50.136;11.062;2022-10-17T09:20:37;98919.00;;;29.40
7389;BMP180;3735;50.136;11.062;2022-10-17T09:23:18;98929.00;;;29.70
7389;BMP180;3735;50.136;11.062;2022-10-17T09:25:51;98931.00;;;29.90
7389;BMP180;3735;50.136;11.062;2022-10-17T09:28:28;98926.00;;;29.90
7389;BMP180;3735;50.136;11.062;2022-10-17T09:31:22;98929.00;;;29.70
7389;BMP180;3735;50.136;11.062;2022-10-17T09:33:51;98929.00;;;29.70
7389;BMP180;3735;50.136;11.062;2022-10-17T09:36:40;98926.00;;;29.40
7389;BMP180;3735;50.136;11.062;2022-10-17T09:39:21;98934.00;;;29.70
7389;BMP180;3735;50.136;11.062;2022-10-17T09:41:54;98932.00;;;30.10
7389;BMP180;3735;50.136;11.062;2022-10-17T09:49:41;98927.00;;;31.10
7389;BMP180;3735;50.136;11.062;2022-10-17T09:52:34;98921.00;;;31.20
7389;BMP180;3735;50.136;11.062;2022-10-17T09:55:36;98928.00;;;31.30
7389;BMP180;3735;50.136;11.062;2022-10-17T09:58:05;98919.00;;;30.80
7389;BMP180;3735;50.136;11.062;2022-10-17T10:00:46;98924.00;;;30.80
7389;BMP180;3735;50.136;11.062;2022-10-17T10:03:23;98927.00;;;31.50
7389;BMP180;3735;50.136;11.062;2022-10-17T10:06:01;98928.00;;;31.90
7389;BMP180;3735;50.136;11.062;2022-10-17T10:08:33;98930.00;;;31.70
7389;BMP180;3735;50.136;11.062;2022-10-17T10:11:06;98933.00;;;31.50
7389;BMP180;3735;50.136;11.062;2022-10-17T10:13:34;98924.00;;;31.90
7389;BMP180;3735;50.136;11.062;2022-10-17T10:16:30;98933.00;;;31.90
7389;BMP180;3735;50.136;11.062;2022-10-17T10:18:56;98921.00;;;31.90
7389;BMP180;3735;50.136;11.062;2022-10-17T10:21:26;98924.00;;;31.40
7389;BMP180;3735;50.136;11.062;2022-10-17T10:24:12;98927.00;;;32.00
7389;BMP180;3735;50.136;11.062;2022-10-17T10:26:49;98926.00;;;32.30
7389;BMP180;3735;50.136;11.062;2022-10-17T10:29:39;98931.00;;;32.40
7389;BMP180;3735;50.136;11.062;2022-10-17T10:32:22;98930.00;;;32.50
7389;BMP180;3735;50.136;11.062;2022-10-17T10:34:58;98926.00;;;32.50
7389;BMP180;3735;50.136;11.062;2022-10-17T10:37:29;98931.00;;;32.10
7389;BMP180;3735;50.136;11.062;2022-10-17T10:40:03;98932.00;;;31.80
7389;BMP180;3735;50.136;11.062;2022-10-17T10:42:36;98928.00;;;31.80
7389;BMP180;3735;50.136;11.062;2022-10-17T10:51:28;98925.00;;;30.70
7389;BMP180;3735;50.136;11.062;2022-10-17T10:53:55;98926.00;;;31.60
7389;BMP180;3735;50.136;11.062;2022-10-17T10:56:48;98921.00;;;30.70
7389;BMP180;3735;50.136;11.062;2022-10-17T10:59:30;98917.00;;;30.80
7389;BMP180;3735;50.136;11.062;2022-10-17T11:02:16;98917.00;;;30.70
7389;BMP180;3735;50.136;11.062;2022-10-17T11:05:19;98927.00;;;30.90
7389;BMP180;3735;50.136;11.062;2022-10-17T11:08:08;98932.00;;;31.40
7389;BMP180;3735;50.136;11.062;2022-10-17T11:11:16;98931.00;;;31.40
7389;BMP180;3735;50.136;11.062;2022-10-17T11:14:04;98927.00;;;32.10
7389;BMP180;3735;50.136;11.062;2022-10-17T11:16:51;98924.00;;;32.20
7389;BMP180;3735;50.136;11.062;2022-10-17T11:19:46;98924.00;;;32.50
7389;BMP180;3735;50.136;11.062;2022-10-17T11:22:26;98921.00;;;33.10
7389;BMP180;3735;50.136;11.062;2022-10-17T11:25:12;98921.00;;;33.40
7389;BMP180;3735;50.136;11.062;2022-10-17T11:27:38;98918.00;;;33.40
7389;BMP180;3735;50.136;11.062;2022-10-17T11:30:05;98923.00;;;33.20
7389;BMP180;3735;50.136;11.062;2022-10-17T11:32:43;98921.00;;;33.50
7389;BMP180;3735;50.136;11.062;2022-10-17T11:40:52;98921.00;;;32.80
7389;BMP180;3735;50.136;11.062;2022-10-17T11:43:31;98927.00;;;32.90
7389;BMP180;3735;50.136;11.062;2022-10-17T11:46:12;98914.00;;;33.30
7389;BMP180;3735;50.136;11.062;2022-10-17T11:49:06;98909.00;;;33.70
7389;BMP180;3735;50.136;11.062;2022-10-17T11:54:49;98910.00;;;33.90
7389;BMP180;3735;50.136;11.062;2022-10-17T12:00:49;98908.00;;;34.30
7389;BMP180;3735;50.136;11.062;2022-10-17T12:03:43;98901.00;;;34.40
7389;BMP180;3735;50.136;11.062;2022-10-17T12:06:54;98899.00;;;35.10
7389;BMP180;3735;50.136;11.062;2022-10-17T12:09:50;98903.00;;;34.80
7389;BMP180;3735;50.136;11.062;2022-10-17T12:12:31;98898.00;;;34.40
7389;BMP180;3735;50.136;11.062;2022-10-17T12:18:02;98897.00;;;34.90
7389;BMP180;3735;50.136;11.062;2022-10-17T12:20:36;98891.00;;;34.90
7389;BMP180;3735;50.136;11.062;2022-10-17T12:25:58;98884.00;;;35.00
7389;BMP180;3735;50.136;11.062;2022-10-17T12:28:30;98881.00;;;35.30
7389;BMP180;3735;50.136;11.062;2022-10-17T12:31:03;98884.00;;;34.20
7389;BMP180;3735;50.136;11.062;2022-10-17T12:33:55;98880.00;;;34.10
7389;BMP180;3735;50.136;11.062;2022-10-17T12:38:50;98884.00;;;32.80
7389;BMP180;3735;50.136;11.062;2022-10-17T12:52:22;98892.00;;;31.30
7389;BMP180;3735;50.136;11.062;2022-10-17T12:58:01;98891.00;;;31.10
7389;BMP180;3735;50.136;11.062;2022-10-17T13:03:20;98903.00;;;31.90
7389;BMP180;3735;50.136;11.062;2022-10-17T13:05:53;98902.00;;;31.70
7389;BMP180;3735;50.136;11.062;2022-10-17T13:08:43;98907.00;;;32.00
7389;BMP180;3735;50.136;11.062;2022-10-17T13:11:12;98908.00;;;32.00
7389;BMP180;3735;50.136;11.062;2022-10-17T13:13:48;98910.00;;;32.60
7389;BMP180;3735;50.136;11.062;2022-10-17T13:16:32;98906.00;;;32.50
7389;BMP180;3735;50.136;11.062;2022-10-17T13:19:01;98902.00;;;32.50
7389;BMP180;3735;50.136;11.062;2022-10-17T13:21:28;98899.00;;;32.20
7389;BMP180;3735;50.136;11.062;2022-10-17T13:23:55;98905.00;;;32.30
7389;BMP180;3735;50.136;11.062;2022-10-17T13:26:27;98904.00;;;32.90
7389;BMP180;3735;50.136;11.062;2022-10-17T13:29:08;98902.00;;;32.60
7389;BMP180;3735;50.136;11.062;2022-10-17T13:31:38;98909.00;;;32.20
7389;BMP180;3735;50.136;11.062;2022-10-17T13:34:17;98911.00;;;31.50
7389;BMP180;3735;50.136;11.062;2022-10-17T13:36:47;98912.00;;;31.80
7389;BMP180;3735;50.136;11.062;2022-10-17T13:39:18;98904.00;;;32.10
7389;BMP180;3735;50.136;11.062;2022-10-17T13:41:44;98906.00;;;30.80
7389;BMP180;3735;50.136;11.062;2022-10-17T13:44:16;98901.00;;;31.40
7389;BMP180;3735;50.136;11.062;2022-10-17T13:46:44;98915.00;;;31.40
7389;BMP180;3735;50.136;11.062;2022-10-17T13:49:21;98901.00;;;30.30
7389;BMP180;3735;50.136;11.062;2022-10-17T13:51:51;98903.00;;;30.40
7389;BMP180;3735;50.136;11.062;2022-10-17T13:54:41;98918.00;;;29.90
7389;BMP180;3735;50.136;11.062;2022-10-17T13:57:34;98925.00;;;28.80
7389;BMP180;3735;50.136;11.062;2022-10-17T14:00:18;98927.00;;;28.80
7389;BMP180;3735;50.136;11.062;2022-10-17T14:02:44;98923.00;;;28.70
7389;BMP180;3735;50.136;11.062;2022-10-17T14:05:13;98928.00;;;28.90
7389;BMP180;3735;50.136;11.062;2022-10-17T14:07:52;98936.00;;;28.60
7389;BMP180;3735;50.136;11.062;2022-10-17T14:10:32;98921.00;;;28.30
7389;BMP180;3735;50.136;11.062;2022-10-17T14:12:59;98927.00;;;28.40
7389;BMP180;3735;50.136;11.062;2022-10-17T14:15:33;98932.00;;;28.50
7389;BMP180;3735;50.136;11.062;2022-10-17T14:18:05;98931.00;;;28.60
7389;BMP180;3735;50.136;11.062;2022-10-17T14:20:32;98923.00;;;28.20
7389;BMP180;3735;50.136;11.062;2022-10-17T14:23:00;98933.00;;;28.70
7389;BMP180;3735;50.136;11.062;2022-10-17T14:25:35;98932.00;;;28.80
7389;BMP180;3735;50.136;11.062;2022-10-17T14:30:52;98936.00;;;28.80
7389;BMP180;3735;50.136;11.062;2022-10-17T14:33:30;98936.00;;;28.60
7389;BMP180;3735;50.136;11.062;2022-10-17T14:36:00;98931.00;;;29.00
7389;BMP180;3735;50.136;11.062;2022-10-17T14:38:27;98935.00;;;28.40
7389;BMP180;3735;50.136;11.062;2022-10-17T14:41:11;98943.00;;;28.40
7389;BMP180;3735;50.136;11.062;2022-10-17T14:43:38;98948.00;;;28.00
7389;BMP180;3735;50.136;11.062;2022-10-17T14:46:04;98944.00;;;28.00
7389;BMP180;3735;50.136;11.062;2022-10-17T14:48:30;98949.00;;;27.20
7389;BMP180;3735;50.136;11.062;2022-10-17T14:51:17;98943.00;;;27.00
7389;BMP180;3735;50.136;11.062;2022-10-17T14:56:39;98955.00;;;26.70
7389;BMP180;3735;50.136;11.062;2022-10-17T14:59:06;98953.00;;;27.00
7389;BMP180;3735;50.136;11.062;2022-10-17T15:01:35;98943.00;;;27.40
7389;BMP180;3735;50.136;11.062;2022-10-17T15:04:03;98954.00;;;27.40
7389;BMP180;3735;50.136;11.062;2022-10-17T15:06:33;98952.00;;;27.40
7389;BMP180;3735;50.136;11.062;2022-10-17T15:08:59;98958.00;;;26.90
7389;BMP180;3735;50.136;11.062;2022-10-17T15:11:25;98971.00;;;26.90
7389;BMP180;3735;50.136;11.062;2022-10-17T15:13:51;98979.00;;;26.30
7389;BMP180;3735;50.136;11.062;2022-10-17T15:16:31;98970.00;;;25.50
7389;BMP180;3735;50.136;11.062;2022-10-17T15:18:57;98969.00;;;24.90
7389;BMP180;3735;50.136;11.062;2022-10-17T15:21:25;98970.00;;;24.50
7389;BMP180;3735;50.136;11.062;2022-10-17T15:23:51;98973.00;;;24.00
7389;BMP180;3735;50.136;11.062;2022-10-17T15:26:24;98979.00;;;23.70
7389;BMP180;3735;50.136;11.062;2022-10-17T15:28:52;98972.00;;;23.50
7389;BMP180;3735;50.136;11.062;2022-10-17T15:31:21;98969.00;;;23.20
7389;BMP180;3735;50.136;11.062;2022-10-17T15:33:48;98969.00;;;22.90
7389;BMP180;3735;50.136;11.062;2022-10-17T15:36:37;98964.00;;;22.60
7389;BMP180;3735;50.136;11.062;2022-10-17T15:39:03;98965.00;;;22.50
7389;BMP180;3735;50.136;11.062;2022-10-17T15:41:31;98968.00;;;22.20
7389;BMP180;3735;50.136;11.062;2022-10-17T15:43:58;98965.00;;;22.00
7389;BMP180;3735;50.136;11.062;2022-10-17T15:46:28;98966.00;;;21.80
7389;BMP180;3735;50.136;11.062;2022-10-17T15:48:56;98968.00;;;21.70
7389;BMP180;3735;50.136;11.062;2022-10-17T15:51:25;98971.00;;;21.40
7389;BMP180;3735;50.136;11.062;2022-10-17T15:53:51;98969.00;;;21.20
7389;BMP180;3735;50.136;11.062;2022-10-17T15:56:37;98966.00;;;20.90
7389;BMP180;3735;50.136;11.062;2022-10-17T15:59:19;98973.00;;;20.60
7389;BMP180;3735;50.136;11.062;2022-10-17T16:01:46;98974.00;;;20.30
7389;BMP180;3735;50.136;11.062;2022-10-17T16:04:13;98980.00;;;20.00
7389;BMP180;3735;50.136;11.062;2022-10-17T16:06:41;98981.00;;;19.80
7389;BMP180;3735;50.136;11.062;2022-10-17T16:09:08;98983.00;;;19.50
7389;BMP180;3735;50.136;11.062;2022-10-17T16:11:39;98984.00;;;19.20
7389;BMP180;3735;50.136;11.062;2022-10-17T16:14:10;98990.00;;;18.90
7389;BMP180;3735;50.136;11.062;2022-10-17T16:16:36;98990.00;;;18.70
7389;BMP180;3735;50.136;11.062;2022-10-17T16:19:02;98985.00;;;18.50
7389;BMP180;3735;50.136;11.062;2022-10-17T16:21:32;98988.00;;;18.40
7389;BMP180;3735;50.136;11.062;2022-10-17T16:23:59;98981.00;;;18.20
7389;BMP180;3735;50.136;11.062;2022-10-17T16:26:26;98987.00;;;18.00
7389;BMP180;3735;50.136;11.062;2022-10-17T16:28:51;98990.00;;;17.90